Lamourie, Louisiana
Current Conditions -  °F | °C
As of 1:53 AM on Friday 24 Oct 2014 (Local Time) from KAEX Reporting Station
Clear Clear  
Wind Chill: 48°   Ceiling: Unl
Heat Index: 48°   Visibility: 8mi
Dew Point: 47°   Wind: 0mph
Humidity: 96%   Direction: NA
Pressure: 30.12"   Gusts: NA
Location:  31.1282°N, 92.3823°W
Report Text: KAEX 240653Z 00000KT 8SM CLR 09/08 A3012 RMK AO2 SLP202 T00890083
Loading
Personal Weather Stations






























Interactive Weather Map
Tropical Storm Tracking
New forecast layout! Learn more

10-Day Weather Forecast

Advertisements
Track Severe Weather on mobile